Time;durP1;ratioP1;P1;durP2;ratioP2;P2;SDS_P1;SDS_P2;PMS_P1;PMS_P2;Temp;Humidity;BMP_temperature;BMP_pressure;BME280_temperature;BME280_humidity;BME280_pressure;Samples;Min_cycle;Max_cycle;Signal;HPM_P1;HPM_P2
2024/01/07 00:03:45;;;;;;;24.35;14.35;;;;;;;0.29;100.00;100500.88;10446275;28;20057;-82
2024/01/07 00:08:49;;;;;;;26.35;13.85;;;;;;;0.25;100.00;100500.16;10422519;28;20053;-81
2024/01/07 00:13:53;;;;;;;21.30;13.82;;;;;;;0.20;100.00;100511.81;10455799;28;20076;-82
2024/01/07 00:18:56;;;;;;;24.73;13.45;;;;;;;0.22;100.00;100518.75;10455278;28;20050;-83
2024/01/07 00:23:59;;;;;;;23.05;14.18;;;;;;;0.16;100.00;100521.59;10451103;28;20053;-81
2024/01/07 00:29:03;;;;;;;25.25;14.85;;;;;;;0.32;100.00;100524.56;10443961;28;20048;-80
2024/01/07 00:34:06;;;;;;;23.95;14.50;;;;;;;0.35;100.00;100535.00;10441743;28;20047;-83
2024/01/07 00:39:10;;;;;;;23.50;13.60;;;;;;;0.30;100.00;100543.13;10462782;28;21165;-82
2024/01/07 00:44:14;;;;;;;25.42;14.60;;;;;;;0.38;100.00;100543.72;10445628;28;20045;-82
2024/01/07 00:49:17;;;;;;;23.85;13.85;;;;;;;0.28;100.00;100530.88;10449478;28;20044;-83
2024/01/07 00:54:20;;;;;;;28.55;15.23;;;;;;;0.25;100.00;100544.19;10456179;28;20072;-82
2024/01/07 00:59:25;;;;;;;26.55;14.52;;;;;;;0.21;100.00;100550.50;10458453;28;20052;-82
2024/01/07 01:04:28;;;;;;;25.05;13.93;;;;;;;0.15;100.00;100543.66;10456652;28;20059;-82
2024/01/07 01:09:31;;;;;;;20.85;12.82;;;;;;;0.09;100.00;100562.38;10455022;28;20122;-81
2024/01/07 01:14:35;;;;;;;20.15;10.90;;;;;;;0.14;100.00;100565.72;10466254;28;20131;-82
2024/01/07 01:19:39;;;;;;;21.63;11.05;;;;;;;0.06;100.00;100568.63;10449665;28;20041;-80
2024/01/07 01:24:43;;;;;;;18.10;10.73;;;;;;;0.05;100.00;100581.88;10434685;28;20089;-81
2024/01/07 01:29:48;;;;;;;19.70;9.98;;;;;;;0.00;100.00;100587.34;10450165;28;20052;-83
2024/01/07 01:34:51;;;;;;;16.75;9.70;;;;;;;-0.07;100.00;100593.72;10447474;28;20049;-81
2024/01/07 01:39:54;;;;;;;17.40;10.55;;;;;;;-0.06;100.00;100609.50;10452272;28;20063;-82
2024/01/07 01:45:01;;;;;;;16.95;9.95;;;;;;;0.01;100.00;100612.81;10452770;28;20894;-81
2024/01/07 01:50:05;;;;;;;14.90;9.35;;;;;;;-0.09;100.00;100612.25;10450775;28;20048;-82
2024/01/07 01:55:09;;;;;;;16.35;8.75;;;;;;;-0.10;100.00;100618.44;10456044;28;20978;-83
2024/01/07 02:00:14;;;;;;;14.20;9.30;;;;;;;-0.10;100.00;100625.53;10458966;28;20129;-82
2024/01/07 02:05:17;;;;;;;16.27;9.88;;;;;;;-0.06;100.00;100635.06;10456943;28;20048;-82
2024/01/07 02:10:20;;;;;;;17.65;10.23;;;;;;;-0.04;100.00;100638.50;10449768;28;20057;-81
2024/01/07 02:15:24;;;;;;;18.55;11.90;;;;;;;-0.15;100.00;100640.66;10496066;28;20056;-83
2024/01/07 02:20:27;;;;;;;18.95;10.68;;;;;;;-0.15;100.00;100641.50;10484492;28;20053;-83
2024/01/07 02:25:36;;;;;;;19.33;9.90;;;;;;;-0.36;100.00;100652.75;10457214;28;20063;-82
2024/01/07 02:30:39;;;;;;;22.65;12.43;;;;;;;-0.21;100.00;100659.34;10464610;28;20044;-82
2024/01/07 02:35:42;;;;;;;21.40;10.77;;;;;;;-0.38;100.00;100657.22;10475912;28;20041;-82
2024/01/07 02:40:46;;;;;;;20.40;10.85;;;;;;;-0.42;100.00;100663.50;10490170;28;20053;-82
2024/01/07 02:45:49;;;;;;;18.77;11.55;;;;;;;-0.39;100.00;100672.19;10469564;28;20047;-82
2024/01/07 02:50:52;;;;;;;23.50;11.60;;;;;;;-0.44;100.00;100668.81;10474906;28;20067;-81
2024/01/07 02:55:57;;;;;;;22.38;12.27;;;;;;;-0.41;100.00;100676.66;10470957;28;20126;-82
2024/01/07 03:01:00;;;;;;;23.33;11.40;;;;;;;-0.43;100.00;100678.47;10466271;28;20040;-82
2024/01/07 03:06:03;;;;;;;17.50;10.80;;;;;;;-0.42;100.00;100682.84;10457991;28;20052;-82
2024/01/07 03:11:08;;;;;;;20.20;11.90;;;;;;;-0.35;100.00;100684.38;10449502;28;20051;-82
2024/01/07 03:16:20;;;;;;;21.77;12.52;;;;;;;-0.38;100.00;100683.63;10464412;28;20558;-82
2024/01/07 03:21:24;;;;;;;20.17;10.93;;;;;;;-0.43;100.00;100693.47;10451685;28;20063;-82
2024/01/07 03:26:32;;;;;;;21.73;10.52;;;;;;;-0.33;100.00;100700.16;10464864;28;20060;-83
2024/01/07 03:31:35;;;;;;;18.90;10.52;;;;;;;-0.44;100.00;100708.41;10467173;28;20067;-83
2024/01/07 03:36:38;;;;;;;17.65;9.60;;;;;;;-0.52;100.00;100715.72;10468193;28;20503;-82
2024/01/07 03:41:42;;;;;;;17.40;9.80;;;;;;;-0.52;100.00;100727.13;10453863;28;20099;-81
2024/01/07 03:46:45;;;;;;;13.95;8.60;;;;;;;-0.58;100.00;100721.16;10457351;28;20057;-83
2024/01/07 03:51:48;;;;;;;15.68;8.88;;;;;;;-0.53;100.00;100738.59;10458218;28;20041;-82
2024/01/07 03:56:53;;;;;;;18.20;8.82;;;;;;;-0.54;100.00;100738.66;10468795;28;20048;-82
2024/01/07 04:01:58;;;;;;;15.98;8.93;;;;;;;-0.65;100.00;100756.56;10464930;28;20130;-82
2024/01/07 04:07:01;;;;;;;16.45;10.05;;;;;;;-0.73;100.00;100754.16;10459965;28;20068;-82
2024/01/07 04:12:07;;;;;;;14.27;8.43;;;;;;;-0.63;100.00;100762.66;10464869;28;20041;-83
2024/01/07 04:17:10;;;;;;;15.75;7.85;;;;;;;-0.84;100.00;100764.13;10467632;28;20044;-81
2024/01/07 04:22:13;;;;;;;15.77;9.20;;;;;;;-0.75;100.00;100777.91;10458817;28;20044;-83
2024/01/07 04:27:18;;;;;;;14.10;8.52;;;;;;;-1.00;100.00;100780.38;10491720;28;20045;-82
2024/01/07 04:32:21;;;;;;;15.65;9.48;;;;;;;-0.86;100.00;100787.91;10477886;28;20160;-82
2024/01/07 04:37:24;;;;;;;15.07;9.63;;;;;;;-0.72;100.00;100795.44;10465537;28;20045;-82
2024/01/07 04:42:28;;;;;;;18.52;10.77;;;;;;;-0.70;100.00;100801.53;10485792;28;20106;-81
2024/01/07 04:47:34;;;;;;;18.75;10.40;;;;;;;-0.69;100.00;100808.53;10506022;28;20052;-80
2024/01/07 04:52:37;;;;;;;15.10;8.82;;;;;;;-0.81;100.00;100809.75;10486927;28;20079;-82
2024/01/07 04:57:41;;;;;;;20.27;10.23;;;;;;;-0.81;100.00;100809.75;10471203;28;20049;-81
2024/01/07 05:02:44;;;;;;;18.92;10.13;;;;;;;-0.77;100.00;100810.53;10473899;28;20059;-81
2024/01/07 05:07:47;;;;;;;18.98;8.88;;;;;;;-0.89;100.00;100827.56;10480065;28;20056;-81
2024/01/07 05:12:52;;;;;;;12.20;7.25;;;;;;;-0.98;99.67;100823.41;10475521;28;20041;-79
2024/01/07 05:17:55;;;;;;;12.75;7.93;;;;;;;-1.08;98.79;100836.84;10465124;28;20094;-81
2024/01/07 05:22:58;;;;;;;16.52;8.13;;;;;;;-1.11;97.52;100832.53;10458073;28;20045;-81
2024/01/07 05:28:02;;;;;;;11.63;7.18;;;;;;;-1.00;97.21;100840.16;10460401;28;20037;-83
2024/01/07 05:33:06;;;;;;;14.68;8.18;;;;;;;-1.03;97.72;100851.66;10465777;28;20040;-83
2024/01/07 05:38:09;;;;;;;11.57;7.75;;;;;;;-0.94;97.98;100853.19;10450673;28;20049;-80
2024/01/07 05:43:13;;;;;;;12.63;7.25;;;;;;;-0.93;98.14;100864.59;10455621;28;20549;-79
2024/01/07 05:48:17;;;;;;;14.45;7.22;;;;;;;-0.97;98.04;100875.22;10468916;28;20044;-78
2024/01/07 05:53:20;;;;;;;10.57;6.80;;;;;;;-1.04;96.16;100884.22;10449057;28;20072;-80
2024/01/07 05:58:24;;;;;;;13.10;6.93;;;;;;;-0.98;96.88;100891.97;10470015;28;20087;-81
2024/01/07 06:03:27;;;;;;;14.43;7.78;;;;;;;-1.03;96.44;100909.66;10452624;28;20056;-80
2024/01/07 06:08:31;;;;;;;17.42;8.90;;;;;;;-0.98;97.05;100909.56;10480672;28;20064;-81
2024/01/07 06:13:35;;;;;;;15.65;7.93;;;;;;;-0.99;97.08;100921.00;10481767;28;20191;-82
2024/01/07 06:18:39;;;;;;;13.05;8.00;;;;;;;-1.00;96.69;100930.69;10466476;28;21263;-83
2024/01/07 06:23:42;;;;;;;13.02;7.97;;;;;;;-0.91;97.39;100934.00;10445163;28;21260;-81
2024/01/07 06:28:47;;;;;;;12.75;7.18;;;;;;;-1.07;96.44;100936.13;10458297;28;20052;-81
2024/01/07 06:33:50;;;;;;;10.65;6.65;;;;;;;-1.15;96.29;100949.53;10461216;28;20063;-81
2024/01/07 06:38:54;;;;;;;12.85;6.70;;;;;;;-1.22;94.94;100955.84;10446989;28;20056;-80
2024/01/07 06:43:58;;;;;;;9.85;5.22;;;;;;;-1.34;94.43;100964.00;10467294;28;20045;-81
2024/01/07 06:49:02;;;;;;;11.32;4.97;;;;;;;-1.24;93.13;100971.69;10457009;28;20102;-81
2024/01/07 06:54:06;;;;;;;7.70;4.57;;;;;;;-1.51;91.19;100978.47;10455484;28;20064;-79
2024/01/07 06:59:11;;;;;;;11.32;4.35;;;;;;;-1.60;90.49;100993.59;10473076;28;21636;-82
2024/01/07 07:04:14;;;;;;;9.13;3.78;;;;;;;-1.41;91.04;100997.56;10472949;28;20044;-81
2024/01/07 07:09:18;;;;;;;6.45;4.15;;;;;;;-1.48;90.76;100988.94;10470498;28;21183;-81
2024/01/07 07:14:22;;;;;;;7.60;4.47;;;;;;;-1.44;90.20;101018.72;10461667;28;20064;-81
2024/01/07 07:19:25;;;;;;;10.35;5.07;;;;;;;-1.30;90.32;101024.53;10460977;28;20060;-82
2024/01/07 07:24:28;;;;;;;6.03;4.35;;;;;;;-1.34;90.34;101028.16;10465558;28;20052;-82
2024/01/07 07:29:33;;;;;;;7.70;4.30;;;;;;;-1.59;88.95;101048.91;10466303;28;20049;-82
2024/01/07 07:34:36;;;;;;;6.78;3.85;;;;;;;-1.70;88.07;101058.75;10455366;28;20055;-81
2024/01/07 07:39:40;;;;;;;6.65;4.47;;;;;;;-1.58;88.03;101066.44;10461214;28;20049;-81
2024/01/07 07:44:44;;;;;;;7.35;4.07;;;;;;;-1.48;87.59;101080.28;10455944;28;20105;-82
2024/01/07 07:49:47;;;;;;;6.30;4.15;;;;;;;-1.50;86.88;101095.28;10465400;28;20057;-81
2024/01/07 07:54:50;;;;;;;6.30;3.75;;;;;;;-1.47;87.03;101106.59;10454456;28;20811;-80
2024/01/07 07:59:55;;;;;;;10.05;5.63;;;;;;;-1.26;87.91;101114.97;10450966;28;20068;-80
2024/01/07 08:04:58;;;;;;;6.13;4.07;;;;;;;-1.20;84.33;101118.38;10451896;28;20040;-80
2024/01/07 08:10:01;;;;;;;5.53;3.80;;;;;;;-0.86;84.73;101120.28;10458193;28;20126;-81
2024/01/07 08:15:08;;;;;;;6.32;3.22;;;;;;;-0.88;82.07;101139.69;10449596;28;20160;-80
2024/01/07 08:20:12;;;;;;;5.55;3.45;;;;;;;-1.12;81.71;101149.00;10445524;28;20053;-79
2024/01/07 08:25:15;;;;;;;6.70;3.30;;;;;;;-1.33;81.80;101160.81;10444219;28;20037;-81
2024/01/07 08:30:20;;;;;;;4.55;3.28;;;;;;;-1.44;80.99;101168.94;10466173;28;20162;-82
2024/01/07 08:35:23;;;;;;;7.80;3.53;;;;;;;-1.32;82.54;101178.38;10459166;28;20431;-79
2024/01/07 08:40:30;;;;;;;7.03;3.75;;;;;;;-1.31;82.67;101188.03;10451285;28;20112;-81
2024/01/07 08:45:35;;;;;;;4.10;3.10;;;;;;;-1.24;82.59;101184.38;10454673;28;20045;-80
2024/01/07 08:50:38;;;;;;;5.53;3.47;;;;;;;-1.17;82.78;101199.19;10453971;28;20116;-82
2024/01/07 08:55:41;;;;;;;8.48;3.50;;;;;;;-1.27;81.15;101203.75;10452590;28;20055;-82
2024/01/07 09:00:46;;;;;;;6.90;3.72;;;;;;;-1.35;80.73;101213.56;10448346;28;20143;-82
2024/01/07 09:05:49;;;;;;;6.80;3.20;;;;;;;-1.65;79.42;101222.88;10462230;28;20052;-81
2024/01/07 09:10:52;;;;;;;5.28;2.95;;;;;;;-1.75;77.94;101230.09;10461672;28;20048;-81
2024/01/07 09:15:57;;;;;;;6.55;2.60;;;;;;;-1.66;77.28;101239.59;10485625;28;20068;-81
2024/01/07 09:21:00;;;;;;;3.95;2.55;;;;;;;-1.46;78.32;101240.09;10479325;28;20045;-80
2024/01/07 09:26:03;;;;;;;3.50;2.42;;;;;;;-1.71;75.48;101249.34;10470804;28;20045;-81
2024/01/07 09:31:07;;;;;;;3.95;2.45;;;;;;;-1.57;75.79;101263.16;10466040;28;20167;-81
2024/01/07 09:36:11;;;;;;;5.68;2.95;;;;;;;-1.47;77.00;101270.00;10449043;28;20048;-80
2024/01/07 09:41:31;;;;;;;7.03;2.70;;;;;;;-1.68;75.46;101262.47;10471289;28;20048;-80
2024/01/07 09:46:38;;;;;;;4.35;2.40;;;;;;;-1.66;74.89;101268.56;10470009;28;20052;-82
2024/01/07 09:51:46;;;;;;;5.63;2.97;;;;;;;-1.55;75.02;101271.03;10473101;28;20053;-81
2024/01/07 09:56:56;;;;;;;4.25;3.03;;;;;;;-1.60;75.94;101279.00;10486257;28;20075;-82
2024/01/07 10:02:01;;;;;;;4.45;2.90;;;;;;;-1.73;74.33;101269.56;10472529;28;20048;-80
2024/01/07 10:07:05;;;;;;;3.72;2.50;;;;;;;-1.57;73.17;101284.22;10463420;28;20382;-80
2024/01/07 10:12:09;;;;;;;3.72;2.20;;;;;;;-1.42;73.70;101291.03;10453449;28;20047;-82
2024/01/07 10:17:19;;;;;;;3.35;2.33;;;;;;;-1.26;74.27;101292.50;10462183;28;20040;-79
2024/01/07 10:22:22;;;;;;;3.95;2.47;;;;;;;-1.20;73.90;101304.72;10455219;28;20136;-80
2024/01/07 10:27:25;;;;;;;6.32;3.22;;;;;;;-1.03;73.97;101302.63;10461394;28;20061;-81
2024/01/07 10:32:30;;;;;;;5.85;3.13;;;;;;;-0.79;74.42;101309.22;10455731;28;20099;-79
2024/01/07 10:37:33;;;;;;;10.85;3.50;;;;;;;-0.75;73.92;101300.34;10447831;28;20045;-80
2024/01/07 10:42:37;;;;;;;8.52;4.28;;;;;;;-0.57;76.52;101306.16;10452754;28;21539;-80
2024/01/07 10:47:46;;;;;;;5.80;3.08;;;;;;;-0.66;74.09;101296.63;10470284;28;20052;-81
2024/01/07 10:52:52;;;;;;;5.05;3.25;;;;;;;-0.65;73.71;101303.66;10450430;28;20056;-79
2024/01/07 10:57:58;;;;;;;16.77;4.00;;;;;;;-0.42;75.89;101299.69;10456573;28;20049;-81
2024/01/07 11:03:10;;;;;;;5.47;3.97;;;;;;;-0.35;75.90;101291.63;10439935;28;20055;-79
2024/01/07 11:08:25;;;;;;;5.28;3.40;;;;;;;-0.79;72.84;101300.44;10453764;28;20072;-79
2024/01/07 11:13:37;;;;;;;9.05;4.65;;;;;;;-0.63;74.20;101301.88;10459104;28;20067;-82
2024/01/07 11:18:49;;;;;;;;;;;;;;;-0.37;76.17;101300.47;10478866;28;20049;-78
2024/01/07 11:23:53;;;;;;;7.55;4.65;;;;;;;-0.38;74.69;101302.25;10479546;28;19924;-79
2024/01/07 11:28:58;;;;;;;7.45;3.60;;;;;;;-0.35;75.88;101309.22;10478628;28;20105;-80
2024/01/07 11:34:03;;;;;;;7.97;4.45;;;;;;;-0.13;76.00;101312.28;10476990;28;20052;-79
2024/01/07 11:39:08;;;;;;;6.82;4.55;;;;;;;-0.10;76.26;101320.13;10469064;28;21186;-79
2024/01/07 11:44:14;;;;;;;6.63;4.05;;;;;;;-0.18;75.26;101317.66;10473233;28;20079;-79
2024/01/07 11:49:19;;;;;;;8.48;3.88;;;;;;;-0.24;75.95;101323.06;10471794;28;20594;-82
2024/01/07 11:54:24;;;;;;;7.43;4.30;;;;;;;0.01;79.42;101320.75;10455129;28;21058;-78
2024/01/07 11:59:27;;;;;;;6.75;3.90;;;;;;;-0.10;76.08;101313.06;10452286;28;20052;-80
2024/01/07 12:04:31;;;;;;;5.75;3.67;;;;;;;-0.14;76.55;101318.44;10459330;28;20439;-80
2024/01/07 12:09:35;;;;;;;4.90;4.03;;;;;;;-0.17;75.55;101318.53;10458179;28;20048;-79
2024/01/07 12:14:38;;;;;;;5.82;3.47;;;;;;;-0.10;77.53;101307.78;10457767;28;20068;-80
2024/01/07 12:19:43;;;;;;;5.40;4.18;;;;;;;0.01;78.12;101314.63;10465278;28;20060;-80
2024/01/07 12:24:46;;;;;;;6.10;3.65;;;;;;;-0.10;76.35;101312.22;10467329;28;20052;-80
2024/01/07 12:29:56;;;;;;;8.82;4.20;;;;;;;-0.03;77.25;101326.13;10473166;28;20048;-82
2024/01/07 12:35:02;;;;;;;6.28;3.92;;;;;;;-0.15;77.01;101319.38;10452484;28;20104;-79
2024/01/07 12:40:09;;;;;;;7.45;4.35;;;;;;;-0.05;78.66;101339.41;10453954;28;20693;-81
2024/01/07 12:45:17;;;;;;;11.00;4.20;;;;;;;-0.09;77.98;101332.44;10471297;28;20429;-79
2024/01/07 12:50:23;;;;;;;5.53;3.40;;;;;;;-0.20;77.47;101337.94;10453940;28;20106;-79
2024/01/07 12:55:26;;;;;;;6.07;3.75;;;;;;;-0.29;77.18;101346.06;10460025;28;20164;-79
2024/01/07 13:00:29;;;;;;;5.50;4.10;;;;;;;-0.08;80.11;101344.75;10498885;28;20524;-80
2024/01/07 13:05:33;;;;;;;6.30;3.67;;;;;;;-0.11;78.38;101353.63;10480628;28;20052;-79
2024/01/07 13:10:36;;;;;;;6.22;3.70;;;;;;;-0.04;78.84;101349.06;10485346;28;20108;-79
2024/01/07 13:15:40;;;;;;;6.07;3.72;;;;;;;-0.07;77.67;101352.63;10466384;28;20048;-79
2024/01/07 13:20:45;;;;;;;6.22;3.45;;;;;;;-0.23;77.85;101361.78;10459604;28;20097;-82
2024/01/07 13:25:48;;;;;;;4.47;3.03;;;;;;;-0.05;79.79;101355.25;10472451;28;20049;-81
2024/01/07 13:30:52;;;;;;;8.02;3.72;;;;;;;-0.09;79.38;101356.19;10480663;28;20046;-80
2024/01/07 13:35:57;;;;;;;6.47;3.58;;;;;;;-0.06;79.12;101353.50;10482103;28;20052;-79
2024/01/07 13:41:00;;;;;;;5.05;3.05;;;;;;;-0.16;78.61;101365.19;10481411;28;20188;-80
2024/01/07 13:46:03;;;;;;;4.78;3.13;;;;;;;-0.09;79.62;101370.28;10475508;28;20053;-80
2024/01/07 13:51:07;;;;;;;7.30;4.43;;;;;;;-0.07;79.96;101368.47;10475841;28;20055;-79
2024/01/07 13:56:10;;;;;;;8.38;3.88;;;;;;;-0.05;80.03;101373.75;10468720;28;20048;-79
2024/01/07 14:01:13;;;;;;;5.63;3.83;;;;;;;-0.24;78.60;101370.59;10468924;28;20048;-79
2024/01/07 14:06:18;;;;;;;7.35;4.07;;;;;;;-0.26;79.48;101385.59;10451665;28;21404;-79
2024/01/07 14:11:21;;;;;;;6.47;3.63;;;;;;;-0.19;80.41;101389.88;10446639;28;20053;-79
2024/01/07 14:16:24;;;;;;;6.22;3.45;;;;;;;-0.32;80.71;101394.53;10448124;28;20059;-79
2024/01/07 14:21:30;;;;;;;8.07;4.20;;;;;;;-0.11;82.93;101397.63;10446500;28;20041;-79
2024/01/07 14:26:33;;;;;;;5.18;3.65;;;;;;;-0.13;81.37;101402.94;10448099;28;20082;-79
2024/01/07 14:31:36;;;;;;;7.20;3.85;;;;;;;-0.24;80.17;101404.94;10457061;28;20049;-80
2024/01/07 14:36:43;;;;;;;8.55;2.97;;;;;;;-0.23;80.74;101411.09;10461197;28;20049;-81
2024/01/07 14:41:46;;;;;;;5.55;3.40;;;;;;;-0.33;80.72;101413.91;10475632;28;20058;-80
2024/01/07 14:46:50;;;;;;;11.25;4.43;;;;;;;-0.37;79.49;101416.63;10467974;28;20041;-79
2024/01/07 14:51:54;;;;;;;6.97;3.30;;;;;;;-0.36;79.04;101421.00;10456109;28;20401;-79
2024/01/07 14:56:57;;;;;;;5.00;2.80;;;;;;;-0.46;78.94;101428.25;10471165;28;20052;-79
2024/01/07 15:02:00;;;;;;;6.18;3.15;;;;;;;-0.58;79.18;101433.75;10466938;28;20051;-80
2024/01/07 15:07:05;;;;;;;5.60;3.58;;;;;;;-0.62;80.03;101435.56;10474989;28;20045;-79
2024/01/07 15:12:08;;;;;;;4.82;2.70;;;;;;;-0.70;80.11;101440.13;10482016;28;20104;-80
2024/01/07 15:17:11;;;;;;;5.55;3.42;;;;;;;-0.78;79.97;101447.28;10483881;28;20058;-79
2024/01/07 15:22:16;;;;;;;7.13;3.58;;;;;;;-0.81;81.10;101460.53;10470264;28;20101;-79
2024/01/07 15:27:19;;;;;;;7.70;3.15;;;;;;;-0.95;80.99;101469.53;10463091;28;20176;-80
2024/01/07 15:32:22;;;;;;;6.47;3.63;;;;;;;-1.08;80.65;101475.03;10488127;28;20045;-79
2024/01/07 15:37:27;;;;;;;7.40;4.72;;;;;;;-1.16;81.07;101477.78;10489656;28;20058;-80
2024/01/07 15:42:30;;;;;;;5.65;3.38;;;;;;;-1.31;79.88;101486.81;10478459;28;20057;-80
2024/01/07 15:47:34;;;;;;;4.63;3.05;;;;;;;-1.35;79.41;101490.34;10471736;28;20742;-80
2024/01/07 15:52:46;;;;;;;5.90;3.50;;;;;;;-1.42;80.27;101494.00;10468306;28;20070;-79
2024/01/07 15:57:49;;;;;;;6.50;3.85;;;;;;;-1.48;79.85;101500.22;10459137;28;20049;-80
2024/01/07 16:02:52;;;;;;;5.95;2.90;;;;;;;-1.61;80.09;101503.91;10467821;28;20804;-79
2024/01/07 16:07:57;;;;;;;9.50;4.20;;;;;;;-1.58;80.58;101508.25;10464324;28;20052;-79
2024/01/07 16:13:00;;;;;;;9.60;5.50;;;;;;;-1.68;81.10;101511.00;10484700;28;20044;-79
2024/01/07 16:18:03;;;;;;;6.97;4.50;;;;;;;-1.67;81.03;101522.44;10492218;28;20063;-82
2024/01/07 16:23:08;;;;;;;10.40;4.50;;;;;;;-1.66;81.00;101522.38;10465053;28;20057;-80
2024/01/07 16:28:11;;;;;;;9.27;4.75;;;;;;;-1.69;81.18;101532.97;10466792;28;20044;-80
2024/01/07 16:33:15;;;;;;;7.53;4.68;;;;;;;-1.72;80.89;101540.91;10479526;28;20055;-80
2024/01/07 16:38:20;;;;;;;10.88;4.00;;;;;;;-1.72;80.64;101545.31;10488908;28;20051;-79
2024/01/07 16:43:23;;;;;;;10.43;4.22;;;;;;;-1.76;81.22;101549.72;10469118;28;20063;-81
2024/01/07 16:48:26;;;;;;;7.80;4.20;;;;;;;-1.75;81.17;101551.50;10480542;28;20135;-80
2024/01/07 16:53:51;;;;;;;7.00;4.22;;;;;;;-1.77;81.01;101555.03;10469544;28;20059;-80
2024/01/07 16:58:53;;;;;;;9.35;3.97;;;;;;;-1.84;81.92;101562.13;10460732;28;20040;-79
2024/01/07 17:03:57;;;;;;;8.65;5.22;;;;;;;-1.85;82.49;101563.88;10454621;28;20045;-80
2024/01/07 17:09:01;;;;;;;7.38;4.90;;;;;;;-1.92;82.70;101563.97;10462102;28;20740;-83
2024/01/07 17:14:04;;;;;;;8.98;5.40;;;;;;;-1.93;82.65;101565.72;10464790;28;20516;-81
2024/01/07 17:19:09;;;;;;;13.93;7.07;;;;;;;-1.92;83.35;101577.13;10473263;28;20129;-79
2024/01/07 17:24:13;;;;;;;13.30;7.05;;;;;;;-1.90;83.51;101585.88;10472896;28;20095;-81
2024/01/07 17:29:16;;;;;;;11.60;6.75;;;;;;;-1.90;84.48;101588.53;10462911;28;20053;-80
2024/01/07 17:34:19;;;;;;;16.55;6.85;;;;;;;-1.79;84.63;101593.69;10467821;28;20048;-81
2024/01/07 17:39:24;;;;;;;9.82;5.65;;;;;;;-1.74;85.22;101587.47;10469103;28;20052;-80
2024/01/07 17:44:27;;;;;;;11.07;6.85;;;;;;;-1.64;85.34;101589.13;10476446;28;20094;-81
2024/01/07 17:49:30;;;;;;;9.90;5.93;;;;;;;-1.65;84.48;101594.41;10439373;28;20052;-81
2024/01/07 17:54:36;;;;;;;11.38;7.53;;;;;;;-1.68;84.40;101592.66;10438588;28;20048;-80
2024/01/07 17:59:39;;;;;;;10.05;6.43;;;;;;;-1.73;84.29;101601.50;10465653;28;20527;-79
2024/01/07 18:04:43;;;;;;;13.55;6.22;;;;;;;-1.69;84.53;101603.25;10458734;28;20048;-80
2024/01/07 18:09:47;;;;;;;11.75;6.55;;;;;;;-1.64;85.55;101606.72;10456204;28;20052;-80
2024/01/07 18:14:51;;;;;;;12.60;6.80;;;;;;;-1.58;85.07;101611.03;10447372;28;20080;-79
2024/01/07 18:19:55;;;;;;;16.33;8.60;;;;;;;-1.56;85.57;101606.59;10453975;28;20048;-80
2024/01/07 18:25:00;;;;;;;13.40;7.35;;;;;;;-1.56;85.50;101611.88;10465925;28;21053;-81
2024/01/07 18:30:07;;;;;;;15.98;7.65;;;;;;;-1.49;86.38;101621.47;10462626;28;20138;-82
2024/01/07 18:35:11;;;;;;;17.05;7.47;;;;;;;-1.51;85.11;101620.59;10456343;28;20114;-80
2024/01/07 18:40:15;;;;;;;11.45;7.00;;;;;;;-1.50;84.66;101620.59;10467536;28;20052;-81
2024/01/07 18:45:19;;;;;;;13.00;7.38;;;;;;;-1.47;83.95;101622.34;10452711;28;20458;-80
2024/01/07 18:50:22;;;;;;;12.60;6.50;;;;;;;-1.44;83.10;101622.28;10468694;28;20058;-80
2024/01/07 18:55:26;;;;;;;16.17;7.45;;;;;;;-1.39;83.27;101623.13;10464418;28;20061;-80
2024/01/07 19:00:29;;;;;;;16.42;7.72;;;;;;;-1.33;84.07;101617.75;10470545;28;20044;-82
2024/01/07 19:05:33;;;;;;;16.33;7.63;;;;;;;-1.31;84.21;101629.16;10466649;28;20416;-82
2024/01/07 19:10:37;;;;;;;13.32;7.90;;;;;;;-1.34;83.17;101631.84;10465943;28;20179;-79
2024/01/07 19:15:42;;;;;;;14.80;7.45;;;;;;;-1.46;82.49;101638.09;10473886;28;20041;-80
2024/01/07 19:20:46;;;;;;;13.38;6.53;;;;;;;-1.46;82.17;101645.16;10462807;28;20064;-79
2024/01/07 19:25:50;;;;;;;13.68;7.28;;;;;;;-1.58;81.04;101640.91;10457982;28;20037;-80
2024/01/07 19:30:54;;;;;;;13.55;7.55;;;;;;;-1.53;82.77;101651.41;10435507;28;20068;-81
2024/01/07 19:35:57;;;;;;;10.68;6.80;;;;;;;-1.63;81.48;101653.25;10462373;28;20601;-81
2024/01/07 19:41:02;;;;;;;13.55;7.13;;;;;;;-1.74;81.32;101660.38;10469126;28;20126;-79
2024/01/07 19:46:05;;;;;;;12.10;6.82;;;;;;;-1.73;80.70;101668.25;10483499;28;20048;-81
2024/01/07 19:51:08;;;;;;;8.18;5.85;;;;;;;-2.03;78.78;101679.06;10477872;28;20109;-80
2024/01/07 19:56:13;;;;;;;14.20;6.28;;;;;;;-2.11;77.26;101681.78;10468580;28;20136;-79
2024/01/07 20:01:16;;;;;;;10.00;5.57;;;;;;;-2.20;77.29;101684.47;10478069;28;20051;-80
2024/01/07 20:06:22;;;;;;;10.73;6.22;;;;;;;-2.18;77.18;101694.09;10469907;28;20483;-81
2024/01/07 20:11:27;;;;;;;8.77;5.95;;;;;;;-2.17;77.46;101693.22;10464652;28;20049;-80
2024/01/07 20:16:31;;;;;;;8.13;5.57;;;;;;;-2.26;76.77;101695.91;10449882;28;21083;-80
2024/01/07 20:21:36;;;;;;;11.48;5.82;;;;;;;-2.33;77.02;101692.47;10446465;28;20053;-81
2024/01/07 20:26:40;;;;;;;12.13;5.90;;;;;;;-2.38;77.29;101696.88;10456493;28;20056;-81
2024/01/07 20:31:46;;;;;;;9.75;5.45;;;;;;;-2.31;78.06;101692.44;10447788;28;20065;-82
2024/01/07 20:36:49;;;;;;;11.90;6.03;;;;;;;-2.27;77.44;101691.56;10455818;28;20159;-80
2024/01/07 20:41:57;;;;;;;10.50;5.75;;;;;;;-2.29;77.05;101704.72;10465602;28;20056;-80
2024/01/07 20:47:00;;;;;;;7.88;4.97;;;;;;;-2.32;76.25;101709.13;10470305;28;20056;-80
2024/01/07 20:52:04;;;;;;;11.50;4.78;;;;;;;-2.33;75.62;101710.00;10500432;28;20044;-79
2024/01/07 20:57:08;;;;;;;10.35;5.05;;;;;;;-2.32;75.65;101703.88;10472018;28;20056;-80
2024/01/07 21:02:13;;;;;;;10.35;4.75;;;;;;;-2.29;76.28;101699.44;10461218;28;20045;-80
2024/01/07 21:07:16;;;;;;;10.65;5.38;;;;;;;-2.33;76.07;101704.72;10467115;28;20136;-81
2024/01/07 21:12:20;;;;;;;8.02;4.55;;;;;;;-2.30;76.43;101702.97;10464255;28;20044;-80
2024/01/07 21:17:24;;;;;;;8.85;4.85;;;;;;;-2.20;75.63;101709.03;10478970;28;20052;-80
2024/01/07 21:22:27;;;;;;;9.73;5.18;;;;;;;-2.21;76.55;101701.16;10478035;28;20055;-80
2024/01/07 21:27:31;;;;;;;9.23;4.82;;;;;;;-2.19;75.77;101709.94;10476104;28;20106;-81
2024/01/07 21:32:35;;;;;;;7.68;4.70;;;;;;;-2.15;75.59;101706.38;10469801;28;20052;-80
2024/01/07 21:37:38;;;;;;;7.95;4.85;;;;;;;-2.16;74.28;101704.66;10456241;28;20055;-79
2024/01/07 21:42:42;;;;;;;8.70;4.40;;;;;;;-2.29;73.67;101712.59;10447672;28;20058;-80
2024/01/07 21:47:45;;;;;;;9.15;4.40;;;;;;;-2.36;74.58;101731.97;10447121;28;20068;-81
2024/01/07 21:52:56;;;;;;;9.82;4.38;;;;;;;-2.39;74.26;101717.94;10456020;28;20060;-80
2024/01/07 21:58:01;;;;;;;7.17;4.60;;;;;;;-2.36;74.73;101717.91;10441046;28;20044;-79
2024/01/07 22:03:05;;;;;;;9.27;4.63;;;;;;;-2.61;74.69;101718.06;10421224;28;20131;-81
2024/01/07 22:08:09;;;;;;;8.80;4.93;;;;;;;-2.62;76.13;101728.59;10434187;28;20045;-81
2024/01/07 22:13:13;;;;;;;6.68;4.28;;;;;;;-2.64;75.56;101731.22;10458293;28;20049;-81
2024/01/07 22:18:16;;;;;;;12.13;5.80;;;;;;;-2.56;76.07;101725.94;10436309;28;20530;-80
2024/01/07 22:23:19;;;;;;;10.02;5.28;;;;;;;-2.44;76.88;101722.34;10448851;28;20049;-78
2024/01/07 22:28:24;;;;;;;10.93;6.28;;;;;;;-2.37;77.07;101737.25;10436171;28;20048;-80
2024/01/07 22:33:27;;;;;;;9.52;6.25;;;;;;;-2.36;77.07;101742.50;10429984;28;20041;-80
2024/01/07 22:38:30;;;;;;;8.70;5.50;;;;;;;-2.25;77.77;101744.19;10463561;28;20109;-79
2024/01/07 22:43:35;;;;;;;9.27;5.78;;;;;;;-2.31;76.61;101748.59;10459998;28;20875;-79
2024/01/07 22:48:38;;;;;;;8.35;5.32;;;;;;;-2.32;76.38;101753.88;10444945;28;20076;-80
2024/01/07 22:53:41;;;;;;;11.15;5.95;;;;;;;-2.29;76.45;101757.34;10435395;28;20143;-80
2024/01/07 22:58:46;;;;;;;9.52;5.50;;;;;;;-2.23;77.15;101760.84;10439696;28;20439;-79
2024/01/07 23:03:50;;;;;;;11.35;5.95;;;;;;;-2.27;76.26;101759.13;10438415;28;20037;-78
2024/01/07 23:08:54;;;;;;;9.75;5.70;;;;;;;-2.39;76.29;101766.19;10431159;28;20051;-79